sensor_id;sensor_type;location;lat;lon;timestamp;P1;durP1;ratioP1;P2;durP2;ratioP2
19095;SDS011;9680;52.520;13.332;2023-12-04T00:01:27;35.07;;;10.70;;
19095;SDS011;9680;52.520;13.332;2023-12-04T00:03:54;36.17;;;10.47;;
19095;SDS011;9680;52.520;13.332;2023-12-04T00:06:22;32.03;;;10.37;;
19095;SDS011;9680;52.520;13.332;2023-12-04T00:08:49;31.73;;;10.67;;
19095;SDS011;9680;52.520;13.332;2023-12-04T00:11:16;35.77;;;10.83;;
19095;SDS011;9680;52.520;13.332;2023-12-04T00:13:43;32.70;;;10.47;;
19095;SDS011;9680;52.520;13.332;2023-12-04T00:16:09;34.97;;;11.20;;
19095;SDS011;9680;52.520;13.332;2023-12-04T00:18:36;29.53;;;10.60;;
19095;SDS011;9680;52.520;13.332;2023-12-04T00:21:03;32.60;;;10.53;;
19095;SDS011;9680;52.520;13.332;2023-12-04T00:23:31;35.40;;;10.97;;
19095;SDS011;9680;52.520;13.332;2023-12-04T00:25:58;32.47;;;10.77;;
19095;SDS011;9680;52.520;13.332;2023-12-04T00:28:25;32.17;;;10.70;;
19095;SDS011;9680;52.520;13.332;2023-12-04T00:30:53;33.90;;;10.30;;
19095;SDS011;9680;52.520;13.332;2023-12-04T00:33:20;33.20;;;10.63;;
19095;SDS011;9680;52.520;13.332;2023-12-04T00:35:47;35.20;;;10.47;;
19095;SDS011;9680;52.520;13.332;2023-12-04T00:38:13;34.33;;;10.00;;
19095;SDS011;9680;52.520;13.332;2023-12-04T00:40:42;34.17;;;10.90;;
19095;SDS011;9680;52.520;13.332;2023-12-04T00:43:08;31.10;;;10.70;;
19095;SDS011;9680;52.520;13.332;2023-12-04T00:45:35;36.27;;;11.37;;
19095;SDS011;9680;52.520;13.332;2023-12-04T00:48:02;34.90;;;11.37;;
19095;SDS011;9680;52.520;13.332;2023-12-04T00:50:29;37.83;;;11.50;;
19095;SDS011;9680;52.520;13.332;2023-12-04T00:52:55;37.47;;;10.97;;
19095;SDS011;9680;52.520;13.332;2023-12-04T00:55:22;34.90;;;10.97;;
19095;SDS011;9680;52.520;13.332;2023-12-04T00:57:50;36.60;;;12.43;;
19095;SDS011;9680;52.520;13.332;2023-12-04T01:00:17;41.83;;;12.77;;
19095;SDS011;9680;52.520;13.332;2023-12-04T01:02:44;34.50;;;11.07;;
19095;SDS011;9680;52.520;13.332;2023-12-04T01:05:11;31.20;;;10.73;;
19095;SDS011;9680;52.520;13.332;2023-12-04T01:07:37;36.27;;;11.60;;
19095;SDS011;9680;52.520;13.332;2023-12-04T01:10:04;40.60;;;11.60;;
19095;SDS011;9680;52.520;13.332;2023-12-04T01:12:32;39.83;;;11.97;;
19095;SDS011;9680;52.520;13.332;2023-12-04T01:15:00;39.90;;;12.33;;
19095;SDS011;9680;52.520;13.332;2023-12-04T01:17:27;35.77;;;11.40;;
19095;SDS011;9680;52.520;13.332;2023-12-04T01:19:54;35.13;;;10.93;;
19095;SDS011;9680;52.520;13.332;2023-12-04T01:22:20;33.70;;;11.07;;
19095;SDS011;9680;52.520;13.332;2023-12-04T01:24:47;37.77;;;11.87;;
19095;SDS011;9680;52.520;13.332;2023-12-04T01:27:14;39.37;;;11.43;;
19095;SDS011;9680;52.520;13.332;2023-12-04T01:29:41;35.87;;;11.50;;
19095;SDS011;9680;52.520;13.332;2023-12-04T01:32:09;36.57;;;11.23;;
19095;SDS011;9680;52.520;13.332;2023-12-04T01:34:35;39.40;;;11.93;;
19095;SDS011;9680;52.520;13.332;2023-12-04T01:37:02;43.53;;;12.50;;
19095;SDS011;9680;52.520;13.332;2023-12-04T01:39:29;36.30;;;11.43;;
19095;SDS011;9680;52.520;13.332;2023-12-04T01:41:56;43.67;;;12.27;;
19095;SDS011;9680;52.520;13.332;2023-12-04T01:44:23;38.00;;;11.70;;
19095;SDS011;9680;52.520;13.332;2023-12-04T01:46:50;38.40;;;11.50;;
19095;SDS011;9680;52.520;13.332;2023-12-04T01:49:18;37.50;;;11.77;;
19095;SDS011;9680;52.520;13.332;2023-12-04T01:51:45;35.97;;;11.47;;
19095;SDS011;9680;52.520;13.332;2023-12-04T01:54:12;39.33;;;11.97;;
19095;SDS011;9680;52.520;13.332;2023-12-04T01:56:40;37.23;;;12.00;;
19095;SDS011;9680;52.520;13.332;2023-12-04T01:59:07;41.87;;;12.43;;
19095;SDS011;9680;52.520;13.332;2023-12-04T02:01:34;37.30;;;11.97;;
19095;SDS011;9680;52.520;13.332;2023-12-04T02:04:03;39.93;;;12.47;;
19095;SDS011;9680;52.520;13.332;2023-12-04T02:06:31;33.67;;;11.03;;
19095;SDS011;9680;52.520;13.332;2023-12-04T02:08:59;39.90;;;11.90;;
19095;SDS011;9680;52.520;13.332;2023-12-04T02:11:28;39.20;;;12.03;;
19095;SDS011;9680;52.520;13.332;2023-12-04T02:13:55;37.00;;;11.43;;
19095;SDS011;9680;52.520;13.332;2023-12-04T02:16:22;37.27;;;12.03;;
19095;SDS011;9680;52.520;13.332;2023-12-04T02:18:51;39.27;;;12.80;;
19095;SDS011;9680;52.520;13.332;2023-12-04T02:21:18;39.70;;;11.87;;
19095;SDS011;9680;52.520;13.332;2023-12-04T02:23:48;44.37;;;12.80;;
19095;SDS011;9680;52.520;13.332;2023-12-04T02:26:16;35.33;;;12.17;;
19095;SDS011;9680;52.520;13.332;2023-12-04T02:28:46;39.40;;;12.17;;
19095;SDS011;9680;52.520;13.332;2023-12-04T02:31:19;38.80;;;12.17;;
19095;SDS011;9680;52.520;13.332;2023-12-04T02:33:49;36.20;;;11.57;;
19095;SDS011;9680;52.520;13.332;2023-12-04T02:36:19;37.03;;;11.77;;
19095;SDS011;9680;52.520;13.332;2023-12-04T02:38:48;38.70;;;12.87;;
19095;SDS011;9680;52.520;13.332;2023-12-04T02:41:15;31.80;;;11.40;;
19095;SDS011;9680;52.520;13.332;2023-12-04T02:43:43;37.80;;;11.53;;
19095;SDS011;9680;52.520;13.332;2023-12-04T02:46:10;41.80;;;12.30;;
19095;SDS011;9680;52.520;13.332;2023-12-04T02:48:36;33.13;;;11.27;;
19095;SDS011;9680;52.520;13.332;2023-12-04T02:51:04;40.00;;;13.37;;
19095;SDS011;9680;52.520;13.332;2023-12-04T02:53:32;35.87;;;11.87;;
19095;SDS011;9680;52.520;13.332;2023-12-04T02:56:00;38.07;;;11.93;;
19095;SDS011;9680;52.520;13.332;2023-12-04T02:58:26;36.07;;;12.00;;
19095;SDS011;9680;52.520;13.332;2023-12-04T03:00:53;34.63;;;11.70;;
19095;SDS011;9680;52.520;13.332;2023-12-04T03:03:20;35.50;;;11.90;;
19095;SDS011;9680;52.520;13.332;2023-12-04T03:05:46;37.87;;;11.00;;
19095;SDS011;9680;52.520;13.332;2023-12-04T03:08:13;39.07;;;11.27;;
19095;SDS011;9680;52.520;13.332;2023-12-04T03:10:40;32.60;;;11.13;;
19095;SDS011;9680;52.520;13.332;2023-12-04T03:13:08;36.13;;;11.90;;
19095;SDS011;9680;52.520;13.332;2023-12-04T03:15:34;37.87;;;12.13;;
19095;SDS011;9680;52.520;13.332;2023-12-04T03:18:01;35.40;;;11.13;;
19095;SDS011;9680;52.520;13.332;2023-12-04T03:20:28;36.90;;;11.77;;
19095;SDS011;9680;52.520;13.332;2023-12-04T03:22:55;37.63;;;11.27;;
19095;SDS011;9680;52.520;13.332;2023-12-04T03:25:21;34.90;;;11.23;;
19095;SDS011;9680;52.520;13.332;2023-12-04T03:27:48;34.77;;;11.47;;
19095;SDS011;9680;52.520;13.332;2023-12-04T03:30:16;36.67;;;11.70;;
19095;SDS011;9680;52.520;13.332;2023-12-04T03:32:43;35.90;;;11.30;;
19095;SDS011;9680;52.520;13.332;2023-12-04T03:35:10;31.77;;;11.00;;
19095;SDS011;9680;52.520;13.332;2023-12-04T03:37:36;32.23;;;11.30;;
19095;SDS011;9680;52.520;13.332;2023-12-04T03:40:03;33.70;;;11.57;;
19095;SDS011;9680;52.520;13.332;2023-12-04T03:42:31;37.47;;;10.97;;
19095;SDS011;9680;52.520;13.332;2023-12-04T03:44:57;34.03;;;11.83;;
19095;SDS011;9680;52.520;13.332;2023-12-04T03:47:26;32.80;;;11.40;;
19095;SDS011;9680;52.520;13.332;2023-12-04T03:49:52;39.67;;;11.60;;
19095;SDS011;9680;52.520;13.332;2023-12-04T03:52:19;37.60;;;12.07;;
19095;SDS011;9680;52.520;13.332;2023-12-04T03:54:45;32.80;;;10.60;;
19095;SDS011;9680;52.520;13.332;2023-12-04T03:57:12;38.53;;;12.03;;
19095;SDS011;9680;52.520;13.332;2023-12-04T03:59:39;38.17;;;11.67;;
19095;SDS011;9680;52.520;13.332;2023-12-04T04:02:06;33.40;;;11.33;;
19095;SDS011;9680;52.520;13.332;2023-12-04T04:04:34;30.90;;;11.00;;
19095;SDS011;9680;52.520;13.332;2023-12-04T04:07:00;34.33;;;11.20;;
19095;SDS011;9680;52.520;13.332;2023-12-04T04:09:27;28.43;;;10.90;;
19095;SDS011;9680;52.520;13.332;2023-12-04T04:11:54;30.83;;;11.03;;
19095;SDS011;9680;52.520;13.332;2023-12-04T04:14:21;33.57;;;11.00;;
19095;SDS011;9680;52.520;13.332;2023-12-04T04:16:48;30.83;;;10.57;;
19095;SDS011;9680;52.520;13.332;2023-12-04T04:19:15;36.73;;;11.87;;
19095;SDS011;9680;52.520;13.332;2023-12-04T04:21:43;33.70;;;10.83;;
19095;SDS011;9680;52.520;13.332;2023-12-04T04:24:10;34.83;;;11.20;;
19095;SDS011;9680;52.520;13.332;2023-12-04T04:26:36;28.00;;;10.00;;
19095;SDS011;9680;52.520;13.332;2023-12-04T04:29:04;33.20;;;10.77;;
19095;SDS011;9680;52.520;13.332;2023-12-04T04:31:31;35.67;;;11.70;;
19095;SDS011;9680;52.520;13.332;2023-12-04T04:33:57;32.63;;;11.10;;
19095;SDS011;9680;52.520;13.332;2023-12-04T04:36:24;35.50;;;10.47;;
19095;SDS011;9680;52.520;13.332;2023-12-04T04:38:52;35.83;;;11.20;;
19095;SDS011;9680;52.520;13.332;2023-12-04T04:41:19;31.87;;;10.20;;
19095;SDS011;9680;52.520;13.332;2023-12-04T04:43:46;26.57;;;10.20;;
19095;SDS011;9680;52.520;13.332;2023-12-04T04:46:12;44.97;;;10.93;;
19095;SDS011;9680;52.520;13.332;2023-12-04T04:48:39;33.03;;;10.60;;
19095;SDS011;9680;52.520;13.332;2023-12-04T04:51:06;36.33;;;12.43;;
19095;SDS011;9680;52.520;13.332;2023-12-04T04:53:33;32.63;;;9.70;;
19095;SDS011;9680;52.520;13.332;2023-12-04T04:56:02;29.17;;;10.07;;
19095;SDS011;9680;52.520;13.332;2023-12-04T04:58:29;30.83;;;10.97;;
19095;SDS011;9680;52.520;13.332;2023-12-04T05:00:55;33.23;;;10.50;;
19095;SDS011;9680;52.520;13.332;2023-12-04T05:03:22;32.83;;;11.03;;
19095;SDS011;9680;52.520;13.332;2023-12-04T05:05:49;29.13;;;10.13;;
19095;SDS011;9680;52.520;13.332;2023-12-04T05:08:16;32.50;;;10.53;;
19095;SDS011;9680;52.520;13.332;2023-12-04T05:10:42;27.90;;;8.97;;
19095;SDS011;9680;52.520;13.332;2023-12-04T05:13:10;31.90;;;10.90;;
19095;SDS011;9680;52.520;13.332;2023-12-04T05:15:37;32.33;;;10.50;;
19095;SDS011;9680;52.520;13.332;2023-12-04T05:18:04;28.80;;;9.87;;
19095;SDS011;9680;52.520;13.332;2023-12-04T05:20:31;31.67;;;9.83;;
19095;SDS011;9680;52.520;13.332;2023-12-04T05:22:58;28.37;;;9.93;;
19095;SDS011;9680;52.520;13.332;2023-12-04T05:25:25;27.67;;;9.07;;
19095;SDS011;9680;52.520;13.332;2023-12-04T05:27:51;29.07;;;9.93;;
19095;SDS011;9680;52.520;13.332;2023-12-04T05:30:20;32.20;;;9.67;;
19095;SDS011;9680;52.520;13.332;2023-12-04T05:32:46;33.07;;;10.33;;
19095;SDS011;9680;52.520;13.332;2023-12-04T05:35:14;26.00;;;9.23;;
19095;SDS011;9680;52.520;13.332;2023-12-04T05:37:42;30.60;;;10.30;;
19095;SDS011;9680;52.520;13.332;2023-12-04T05:40:09;31.23;;;9.73;;
19095;SDS011;9680;52.520;13.332;2023-12-04T05:42:36;28.13;;;9.43;;
19095;SDS011;9680;52.520;13.332;2023-12-04T05:45:03;31.23;;;9.67;;
19095;SDS011;9680;52.520;13.332;2023-12-04T05:47:32;30.70;;;9.77;;
19095;SDS011;9680;52.520;13.332;2023-12-04T05:49:59;37.37;;;9.57;;
19095;SDS011;9680;52.520;13.332;2023-12-04T05:52:26;28.40;;;9.33;;
19095;SDS011;9680;52.520;13.332;2023-12-04T05:54:53;29.47;;;9.90;;
19095;SDS011;9680;52.520;13.332;2023-12-04T05:57:20;25.73;;;9.10;;
19095;SDS011;9680;52.520;13.332;2023-12-04T05:59:47;30.13;;;9.90;;
19095;SDS011;9680;52.520;13.332;2023-12-04T06:02:13;32.40;;;10.40;;
19095;SDS011;9680;52.520;13.332;2023-12-04T06:04:41;32.30;;;10.37;;
19095;SDS011;9680;52.520;13.332;2023-12-04T06:07:08;29.20;;;10.13;;
19095;SDS011;9680;52.520;13.332;2023-12-04T06:09:35;31.57;;;9.90;;
19095;SDS011;9680;52.520;13.332;2023-12-04T06:12:03;33.47;;;10.83;;
19095;SDS011;9680;52.520;13.332;2023-12-04T06:14:33;30.70;;;10.27;;
19095;SDS011;9680;52.520;13.332;2023-12-04T06:17:00;30.33;;;10.03;;
19095;SDS011;9680;52.520;13.332;2023-12-04T06:19:27;30.37;;;10.33;;
19095;SDS011;9680;52.520;13.332;2023-12-04T06:21:55;30.73;;;10.93;;
19095;SDS011;9680;52.520;13.332;2023-12-04T06:24:23;29.77;;;9.83;;
19095;SDS011;9680;52.520;13.332;2023-12-04T06:26:50;29.27;;;10.17;;
19095;SDS011;9680;52.520;13.332;2023-12-04T06:29:18;29.30;;;10.03;;
19095;SDS011;9680;52.520;13.332;2023-12-04T06:31:45;29.70;;;10.30;;
19095;SDS011;9680;52.520;13.332;2023-12-04T06:34:13;32.37;;;9.87;;
19095;SDS011;9680;52.520;13.332;2023-12-04T06:36:40;29.03;;;10.10;;
19095;SDS011;9680;52.520;13.332;2023-12-04T06:39:10;28.17;;;10.03;;
19095;SDS011;9680;52.520;13.332;2023-12-04T06:41:37;29.43;;;9.97;;
19095;SDS011;9680;52.520;13.332;2023-12-04T06:44:05;29.73;;;9.63;;
19095;SDS011;9680;52.520;13.332;2023-12-04T06:46:33;33.00;;;10.17;;
19095;SDS011;9680;52.520;13.332;2023-12-04T06:49:04;29.17;;;9.97;;
19095;SDS011;9680;52.520;13.332;2023-12-04T06:51:32;26.57;;;9.37;;
19095;SDS011;9680;52.520;13.332;2023-12-04T06:53:59;29.97;;;9.80;;
19095;SDS011;9680;52.520;13.332;2023-12-04T06:56:27;26.03;;;8.90;;
19095;SDS011;9680;52.520;13.332;2023-12-04T06:58:53;28.97;;;10.53;;
19095;SDS011;9680;52.520;13.332;2023-12-04T07:01:20;27.03;;;10.27;;
19095;SDS011;9680;52.520;13.332;2023-12-04T07:03:49;29.27;;;10.07;;
19095;SDS011;9680;52.520;13.332;2023-12-04T07:06:15;31.03;;;9.97;;
19095;SDS011;9680;52.520;13.332;2023-12-04T07:08:43;29.33;;;10.03;;
19095;SDS011;9680;52.520;13.332;2023-12-04T07:11:09;32.53;;;10.30;;
19095;SDS011;9680;52.520;13.332;2023-12-04T07:13:41;26.30;;;9.73;;
19095;SDS011;9680;52.520;13.332;2023-12-04T07:16:08;28.03;;;9.63;;
19095;SDS011;9680;52.520;13.332;2023-12-04T07:18:36;29.03;;;9.70;;
19095;SDS011;9680;52.520;13.332;2023-12-04T07:21:03;28.97;;;9.80;;
19095;SDS011;9680;52.520;13.332;2023-12-04T07:23:30;26.97;;;9.13;;
19095;SDS011;9680;52.520;13.332;2023-12-04T07:25:57;31.73;;;10.17;;
19095;SDS011;9680;52.520;13.332;2023-12-04T07:28:24;26.83;;;9.27;;
19095;SDS011;9680;52.520;13.332;2023-12-04T07:30:53;27.37;;;9.67;;
19095;SDS011;9680;52.520;13.332;2023-12-04T07:33:20;26.20;;;9.40;;
19095;SDS011;9680;52.520;13.332;2023-12-04T07:35:47;30.17;;;9.83;;
19095;SDS011;9680;52.520;13.332;2023-12-04T07:38:14;32.23;;;9.60;;
19095;SDS011;9680;52.520;13.332;2023-12-04T07:40:40;25.17;;;9.03;;
19095;SDS011;9680;52.520;13.332;2023-12-04T07:43:07;38.07;;;13.43;;
19095;SDS011;9680;52.520;13.332;2023-12-04T07:45:34;32.07;;;9.63;;
19095;SDS011;9680;52.520;13.332;2023-12-04T07:48:03;26.27;;;9.33;;
19095;SDS011;9680;52.520;13.332;2023-12-04T07:50:31;26.03;;;9.30;;
19095;SDS011;9680;52.520;13.332;2023-12-04T07:52:57;26.73;;;9.77;;
19095;SDS011;9680;52.520;13.332;2023-12-04T07:55:24;27.67;;;9.70;;
19095;SDS011;9680;52.520;13.332;2023-12-04T07:57:51;27.53;;;9.37;;
19095;SDS011;9680;52.520;13.332;2023-12-04T08:00:18;27.33;;;9.80;;
19095;SDS011;9680;52.520;13.332;2023-12-04T08:02:47;27.57;;;10.00;;
19095;SDS011;9680;52.520;13.332;2023-12-04T08:05:16;26.07;;;9.20;;
19095;SDS011;9680;52.520;13.332;2023-12-04T08:07:42;24.70;;;9.23;;
19095;SDS011;9680;52.520;13.332;2023-12-04T08:10:10;31.10;;;9.90;;
19095;SDS011;9680;52.520;13.332;2023-12-04T08:12:36;26.60;;;9.60;;
19095;SDS011;9680;52.520;13.332;2023-12-04T08:15:04;34.07;;;11.77;;
19095;SDS011;9680;52.520;13.332;2023-12-04T08:17:31;26.93;;;9.40;;
19095;SDS011;9680;52.520;13.332;2023-12-04T08:19:58;28.93;;;9.83;;
19095;SDS011;9680;52.520;13.332;2023-12-04T08:22:26;27.70;;;9.93;;
19095;SDS011;9680;52.520;13.332;2023-12-04T08:24:53;25.43;;;9.47;;
19095;SDS011;9680;52.520;13.332;2023-12-04T08:27:20;33.30;;;10.00;;
19095;SDS011;9680;52.520;13.332;2023-12-04T08:29:47;28.07;;;9.37;;
19095;SDS011;9680;52.520;13.332;2023-12-04T08:32:14;25.33;;;9.20;;
19095;SDS011;9680;52.520;13.332;2023-12-04T08:34:40;26.57;;;9.63;;
19095;SDS011;9680;52.520;13.332;2023-12-04T08:37:07;21.40;;;7.93;;
19095;SDS011;9680;52.520;13.332;2023-12-04T08:39:35;24.67;;;9.57;;
19095;SDS011;9680;52.520;13.332;2023-12-04T08:42:02;26.10;;;9.93;;
19095;SDS011;9680;52.520;13.332;2023-12-04T08:44:29;27.40;;;9.73;;
19095;SDS011;9680;52.520;13.332;2023-12-04T08:46:56;23.73;;;8.77;;
19095;SDS011;9680;52.520;13.332;2023-12-04T08:49:25;31.20;;;10.27;;
19095;SDS011;9680;52.520;13.332;2023-12-04T08:51:51;26.67;;;9.47;;
19095;SDS011;9680;52.520;13.332;2023-12-04T08:54:18;29.93;;;10.17;;
19095;SDS011;9680;52.520;13.332;2023-12-04T08:56:47;27.43;;;9.73;;
19095;SDS011;9680;52.520;13.332;2023-12-04T08:59:13;26.13;;;9.40;;
19095;SDS011;9680;52.520;13.332;2023-12-04T09:01:41;22.93;;;8.73;;
19095;SDS011;9680;52.520;13.332;2023-12-04T09:04:08;26.50;;;10.03;;
19095;SDS011;9680;52.520;13.332;2023-12-04T09:06:35;22.73;;;9.43;;
19095;SDS011;9680;52.520;13.332;2023-12-04T09:09:03;27.07;;;10.00;;
19095;SDS011;9680;52.520;13.332;2023-12-04T09:11:30;25.47;;;8.97;;
19095;SDS011;9680;52.520;13.332;2023-12-04T09:13:58;29.43;;;8.57;;
19095;SDS011;9680;52.520;13.332;2023-12-04T09:16:25;23.77;;;9.03;;
19095;SDS011;9680;52.520;13.332;2023-12-04T09:18:51;24.80;;;8.57;;
19095;SDS011;9680;52.520;13.332;2023-12-04T09:21:18;23.60;;;9.23;;
19095;SDS011;9680;52.520;13.332;2023-12-04T09:23:45;27.30;;;9.97;;
19095;SDS011;9680;52.520;13.332;2023-12-04T09:26:15;24.57;;;9.30;;
19095;SDS011;9680;52.520;13.332;2023-12-04T09:28:41;23.17;;;9.07;;
19095;SDS011;9680;52.520;13.332;2023-12-04T09:31:09;26.37;;;9.30;;
19095;SDS011;9680;52.520;13.332;2023-12-04T09:33:36;27.03;;;9.13;;
19095;SDS011;9680;52.520;13.332;2023-12-04T09:36:03;23.60;;;8.70;;
19095;SDS011;9680;52.520;13.332;2023-12-04T09:38:30;25.67;;;8.60;;
19095;SDS011;9680;52.520;13.332;2023-12-04T09:41:01;23.83;;;9.13;;
19095;SDS011;9680;52.520;13.332;2023-12-04T09:43:28;23.90;;;8.70;;
19095;SDS011;9680;52.520;13.332;2023-12-04T09:45:57;25.13;;;9.13;;
19095;SDS011;9680;52.520;13.332;2023-12-04T09:48:25;26.83;;;9.57;;
19095;SDS011;9680;52.520;13.332;2023-12-04T09:50:52;24.03;;;9.07;;
19095;SDS011;9680;52.520;13.332;2023-12-04T09:53:20;23.90;;;8.73;;
19095;SDS011;9680;52.520;13.332;2023-12-04T09:55:48;25.70;;;9.67;;
19095;SDS011;9680;52.520;13.332;2023-12-04T09:58:15;24.73;;;9.67;;
19095;SDS011;9680;52.520;13.332;2023-12-04T10:00:46;23.37;;;9.37;;
19095;SDS011;9680;52.520;13.332;2023-12-04T10:03:12;23.40;;;8.90;;
19095;SDS011;9680;52.520;13.332;2023-12-04T10:05:41;24.20;;;9.17;;
19095;SDS011;9680;52.520;13.332;2023-12-04T10:08:10;22.70;;;8.93;;
19095;SDS011;9680;52.520;13.332;2023-12-04T10:10:37;25.17;;;9.00;;
19095;SDS011;9680;52.520;13.332;2023-12-04T10:13:04;27.37;;;9.37;;
19095;SDS011;9680;52.520;13.332;2023-12-04T10:15:31;23.03;;;8.97;;
19095;SDS011;9680;52.520;13.332;2023-12-04T10:17:58;24.50;;;8.87;;
19095;SDS011;9680;52.520;13.332;2023-12-04T10:20:25;25.77;;;8.33;;
19095;SDS011;9680;52.520;13.332;2023-12-04T10:22:55;21.70;;;8.13;;
19095;SDS011;9680;52.520;13.332;2023-12-04T10:25:23;19.17;;;7.70;;
19095;SDS011;9680;52.520;13.332;2023-12-04T10:27:52;23.67;;;8.40;;
19095;SDS011;9680;52.520;13.332;2023-12-04T10:30:23;21.50;;;8.43;;
19095;SDS011;9680;52.520;13.332;2023-12-04T10:32:55;22.93;;;9.10;;
19095;SDS011;9680;52.520;13.332;2023-12-04T10:35:25;25.80;;;8.73;;
19095;SDS011;9680;52.520;13.332;2023-12-04T10:37:54;19.27;;;7.50;;
19095;SDS011;9680;52.520;13.332;2023-12-04T10:40:25;21.73;;;7.90;;
19095;SDS011;9680;52.520;13.332;2023-12-04T10:43:09;20.73;;;8.53;;
19095;SDS011;9680;52.520;13.332;2023-12-04T10:45:37;22.90;;;8.40;;
19095;SDS011;9680;52.520;13.332;2023-12-04T10:48:05;19.03;;;7.83;;
19095;SDS011;9680;52.520;13.332;2023-12-04T10:50:32;21.77;;;8.67;;
19095;SDS011;9680;52.520;13.332;2023-12-04T10:53:02;20.23;;;7.83;;
19095;SDS011;9680;52.520;13.332;2023-12-04T10:55:30;20.60;;;8.17;;
19095;SDS011;9680;52.520;13.332;2023-12-04T10:57:57;24.97;;;8.50;;
19095;SDS011;9680;52.520;13.332;2023-12-04T11:00:25;19.93;;;8.40;;
19095;SDS011;9680;52.520;13.332;2023-12-04T11:02:55;20.80;;;8.17;;
19095;SDS011;9680;52.520;13.332;2023-12-04T11:05:23;20.30;;;7.73;;
19095;SDS011;9680;52.520;13.332;2023-12-04T11:07:51;24.03;;;8.20;;
19095;SDS011;9680;52.520;13.332;2023-12-04T11:10:23;20.30;;;7.83;;
19095;SDS011;9680;52.520;13.332;2023-12-04T11:12:54;22.00;;;8.00;;
19095;SDS011;9680;52.520;13.332;2023-12-04T11:15:24;21.43;;;8.47;;
19095;SDS011;9680;52.520;13.332;2023-12-04T11:17:52;23.77;;;8.50;;
19095;SDS011;9680;52.520;13.332;2023-12-04T11:20:24;20.50;;;7.83;;
19095;SDS011;9680;52.520;13.332;2023-12-04T11:22:55;24.17;;;8.93;;
19095;SDS011;9680;52.520;13.332;2023-12-04T11:25:25;22.50;;;8.47;;
19095;SDS011;9680;52.520;13.332;2023-12-04T11:27:54;19.87;;;7.70;;
19095;SDS011;9680;52.520;13.332;2023-12-04T11:30:22;18.80;;;7.83;;
19095;SDS011;9680;52.520;13.332;2023-12-04T11:32:49;20.43;;;8.23;;
19095;SDS011;9680;52.520;13.332;2023-12-04T11:35:17;21.37;;;8.17;;
19095;SDS011;9680;52.520;13.332;2023-12-04T11:37:46;22.77;;;8.10;;
19095;SDS011;9680;52.520;13.332;2023-12-04T11:40:14;24.00;;;8.17;;
19095;SDS011;9680;52.520;13.332;2023-12-04T11:42:43;19.87;;;8.20;;
19095;SDS011;9680;52.520;13.332;2023-12-04T11:45:11;25.23;;;8.13;;
19095;SDS011;9680;52.520;13.332;2023-12-04T11:47:51;18.27;;;8.00;;
19095;SDS011;9680;52.520;13.332;2023-12-04T11:50:20;21.27;;;8.17;;
19095;SDS011;9680;52.520;13.332;2023-12-04T11:52:47;20.37;;;7.93;;
19095;SDS011;9680;52.520;13.332;2023-12-04T11:55:18;18.80;;;7.47;;
19095;SDS011;9680;52.520;13.332;2023-12-04T11:57:48;17.97;;;7.30;;
19095;SDS011;9680;52.520;13.332;2023-12-04T12:00:20;22.80;;;7.97;;
19095;SDS011;9680;52.520;13.332;2023-12-04T12:02:50;21.93;;;8.10;;
19095;SDS011;9680;52.520;13.332;2023-12-04T12:05:31;20.50;;;7.57;;
19095;SDS011;9680;52.520;13.332;2023-12-04T12:08:01;21.37;;;7.77;;
19095;SDS011;9680;52.520;13.332;2023-12-04T12:10:29;20.40;;;7.73;;
19095;SDS011;9680;52.520;13.332;2023-12-04T12:12:57;21.20;;;7.67;;
19095;SDS011;9680;52.520;13.332;2023-12-04T12:15:25;17.80;;;7.43;;
19095;SDS011;9680;52.520;13.332;2023-12-04T12:17:52;15.93;;;6.60;;
19095;SDS011;9680;52.520;13.332;2023-12-04T12:20:18;20.90;;;8.10;;
19095;SDS011;9680;52.520;13.332;2023-12-04T12:22:47;20.30;;;7.87;;
19095;SDS011;9680;52.520;13.332;2023-12-04T12:25:15;20.23;;;7.70;;
19095;SDS011;9680;52.520;13.332;2023-12-04T12:27:41;19.43;;;7.80;;
19095;SDS011;9680;52.520;13.332;2023-12-04T12:30:10;23.17;;;8.47;;
19095;SDS011;9680;52.520;13.332;2023-12-04T12:32:37;20.00;;;7.63;;
19095;SDS011;9680;52.520;13.332;2023-12-04T12:35:04;19.30;;;7.73;;
19095;SDS011;9680;52.520;13.332;2023-12-04T12:37:32;19.73;;;7.43;;
19095;SDS011;9680;52.520;13.332;2023-12-04T12:40:00;19.70;;;7.80;;
19095;SDS011;9680;52.520;13.332;2023-12-04T12:42:29;18.40;;;7.37;;
19095;SDS011;9680;52.520;13.332;2023-12-04T12:44:59;19.30;;;7.50;;
19095;SDS011;9680;52.520;13.332;2023-12-04T12:47:28;18.90;;;7.17;;
19095;SDS011;9680;52.520;13.332;2023-12-04T12:49:55;25.80;;;7.30;;
19095;SDS011;9680;52.520;13.332;2023-12-04T12:52:22;19.17;;;7.37;;
19095;SDS011;9680;52.520;13.332;2023-12-04T12:54:49;21.20;;;8.67;;
19095;SDS011;9680;52.520;13.332;2023-12-04T12:57:15;21.97;;;8.20;;
19095;SDS011;9680;52.520;13.332;2023-12-04T12:59:42;17.73;;;7.40;;
19095;SDS011;9680;52.520;13.332;2023-12-04T13:02:10;20.67;;;7.70;;
19095;SDS011;9680;52.520;13.332;2023-12-04T13:04:38;20.50;;;7.47;;
19095;SDS011;9680;52.520;13.332;2023-12-04T13:07:07;21.37;;;7.93;;
19095;SDS011;9680;52.520;13.332;2023-12-04T13:09:34;18.90;;;7.53;;
19095;SDS011;9680;52.520;13.332;2023-12-04T13:12:01;19.30;;;7.67;;
19095;SDS011;9680;52.520;13.332;2023-12-04T13:14:29;17.17;;;7.30;;
19095;SDS011;9680;52.520;13.332;2023-12-04T13:16:56;19.27;;;7.63;;
19095;SDS011;9680;52.520;13.332;2023-12-04T13:19:23;19.63;;;7.77;;
19095;SDS011;9680;52.520;13.332;2023-12-04T13:21:51;19.87;;;7.27;;
19095;SDS011;9680;52.520;13.332;2023-12-04T13:24:18;25.77;;;7.70;;
19095;SDS011;9680;52.520;13.332;2023-12-04T13:26:44;19.93;;;7.70;;
19095;SDS011;9680;52.520;13.332;2023-12-04T13:29:11;21.00;;;7.80;;
19095;SDS011;9680;52.520;13.332;2023-12-04T13:31:40;19.30;;;8.27;;
19095;SDS011;9680;52.520;13.332;2023-12-04T13:34:07;18.63;;;7.50;;
19095;SDS011;9680;52.520;13.332;2023-12-04T13:36:34;19.47;;;7.47;;
19095;SDS011;9680;52.520;13.332;2023-12-04T13:39:02;20.60;;;7.80;;
19095;SDS011;9680;52.520;13.332;2023-12-04T13:41:29;19.17;;;7.83;;
19095;SDS011;9680;52.520;13.332;2023-12-04T13:44:14;21.13;;;7.80;;
19095;SDS011;9680;52.520;13.332;2023-12-04T13:46:40;20.73;;;7.33;;
19095;SDS011;9680;52.520;13.332;2023-12-04T13:49:07;19.57;;;7.70;;
19095;SDS011;9680;52.520;13.332;2023-12-04T13:51:35;19.90;;;7.57;;
19095;SDS011;9680;52.520;13.332;2023-12-04T13:54:06;18.53;;;7.57;;
19095;SDS011;9680;52.520;13.332;2023-12-04T13:56:46;17.80;;;7.23;;
19095;SDS011;9680;52.520;13.332;2023-12-04T13:59:18;20.13;;;7.50;;
19095;SDS011;9680;52.520;13.332;2023-12-04T14:01:46;20.63;;;7.17;;
19095;SDS011;9680;52.520;13.332;2023-12-04T14:04:16;18.67;;;7.10;;
19095;SDS011;9680;52.520;13.332;2023-12-04T14:06:43;19.67;;;8.07;;
19095;SDS011;9680;52.520;13.332;2023-12-04T14:09:11;18.93;;;8.00;;
19095;SDS011;9680;52.520;13.332;2023-12-04T14:11:40;20.17;;;7.97;;
19095;SDS011;9680;52.520;13.332;2023-12-04T14:14:09;20.77;;;7.40;;
19095;SDS011;9680;52.520;13.332;2023-12-04T14:16:36;18.43;;;7.50;;
19095;SDS011;9680;52.520;13.332;2023-12-04T14:19:02;19.37;;;7.70;;
19095;SDS011;9680;52.520;13.332;2023-12-04T14:21:30;22.00;;;8.00;;
19095;SDS011;9680;52.520;13.332;2023-12-04T14:23:56;19.13;;;7.63;;
19095;SDS011;9680;52.520;13.332;2023-12-04T14:26:23;19.90;;;8.10;;
19095;SDS011;9680;52.520;13.332;2023-12-04T14:28:50;17.67;;;7.87;;
19095;SDS011;9680;52.520;13.332;2023-12-04T14:31:17;23.80;;;8.40;;